createdAt,value
2018-03-02T00:01:05.277Z,16.77
2018-03-02T00:03:33.521Z,20.30
2018-03-02T00:06:01.018Z,18.70
2018-03-02T00:08:29.268Z,17.70
2018-03-02T00:10:56.729Z,16.13
2018-03-02T00:13:24.201Z,15.27
2018-03-02T00:15:52.429Z,18.60
2018-03-02T00:18:19.904Z,18.57
2018-03-02T00:20:47.388Z,16.37
2018-03-02T00:23:15.611Z,18.67
2018-03-02T00:25:43.084Z,19.50
2018-03-02T00:28:10.534Z,18.27
2018-03-02T00:30:38.843Z,17.07
2018-03-02T00:33:07.089Z,19.20
2018-03-02T00:35:34.604Z,20.27
2018-03-02T00:38:02.098Z,19.47
2018-03-02T00:40:29.560Z,20.07
2018-03-02T00:42:57.028Z,18.23
2018-03-02T00:45:24.521Z,19.30
2018-03-02T00:47:52.816Z,15.00
2018-03-02T00:50:20.298Z,14.07
2018-03-02T00:52:47.792Z,18.93
2018-03-02T00:55:15.256Z,19.20
2018-03-02T00:57:43.478Z,18.07
2018-03-02T01:00:10.984Z,16.60
2018-03-02T01:02:39.207Z,20.00
2018-03-02T01:05:06.740Z,19.07
2018-03-02T01:07:34.224Z,17.43
2018-03-02T01:10:01.686Z,20.47
2018-03-02T01:12:29.192Z,17.47
2018-03-02T01:14:58.018Z,19.37
2018-03-02T01:17:25.476Z,19.00
2018-03-02T01:19:52.989Z,17.90
2018-03-02T01:22:21.229Z,17.20
2018-03-02T01:24:48.729Z,20.60
2018-03-02T01:27:16.981Z,17.33
2018-03-02T01:29:44.462Z,17.33
2018-03-02T01:32:12.725Z,20.60
2018-03-02T01:34:40.980Z,20.57
2018-03-02T01:37:08.469Z,19.53
2018-03-02T01:39:36.694Z,19.93
2018-03-02T01:42:04.152Z,19.17
2018-03-02T01:44:31.661Z,20.03
2018-03-02T01:46:59.879Z,20.17
2018-03-02T01:49:27.384Z,14.70
2018-03-02T01:51:55.610Z,19.43
2018-03-02T01:54:23.146Z,21.37
2018-03-02T01:56:50.602Z,20.67
2018-03-02T01:59:18.118Z,19.00
2018-03-02T02:01:45.600Z,19.13
2018-03-02T02:04:13.855Z,16.13
2018-03-02T02:06:41.349Z,20.77
2018-03-02T02:09:08.813Z,19.53
2018-03-02T02:11:36.300Z,17.17
2018-03-02T02:14:03.759Z,18.47
2018-03-02T02:16:31.237Z,17.17
2018-03-02T02:18:58.721Z,19.97
2018-03-02T02:21:26.942Z,20.93
2018-03-02T02:23:54.422Z,21.07
2018-03-02T02:26:21.895Z,21.23
2018-03-02T02:28:50.161Z,17.83
2018-03-02T02:31:17.638Z,17.83
2018-03-02T02:33:45.881Z,22.27
2018-03-02T02:36:13.378Z,20.23
2018-03-02T02:38:41.621Z,19.07
2018-03-02T02:41:09.096Z,21.07
2018-03-02T02:43:37.356Z,20.80
2018-03-02T02:46:04.821Z,21.40
2018-03-02T02:48:33.062Z,21.13
2018-03-02T02:51:01.383Z,22.30
2018-03-02T02:53:29.655Z,20.00
2018-03-02T02:55:57.936Z,20.43
2018-03-02T02:58:26.245Z,21.43
2018-03-02T03:00:53.722Z,18.63
2018-03-02T03:03:21.204Z,21.03
2018-03-02T03:05:48.716Z,19.03
2018-03-02T03:08:16.217Z,20.77
2018-03-02T03:10:43.696Z,18.77
2018-03-02T03:13:11.948Z,22.00
2018-03-02T03:15:39.646Z,15.90
2018-03-02T03:18:07.101Z,20.90
2018-03-02T03:20:34.589Z,22.37
2018-03-02T03:23:02.072Z,21.37
2018-03-02T03:25:29.595Z,22.00
2018-03-02T03:27:57.085Z,21.67
2018-03-02T03:30:24.566Z,20.87
2018-03-02T03:32:52.020Z,21.40
2018-03-02T03:35:20.271Z,20.63
2018-03-02T03:37:47.724Z,20.00
2018-03-02T03:40:15.197Z,20.13
2018-03-02T03:42:42.690Z,21.67
2018-03-02T03:45:10.172Z,16.37
2018-03-02T03:47:37.814Z,20.80
2018-03-02T03:50:05.328Z,20.57
2018-03-02T03:52:32.836Z,19.03
2018-03-02T03:55:00.301Z,21.87
2018-03-02T03:57:27.792Z,18.77
2018-03-02T03:59:55.283Z,19.03
2018-03-02T04:02:22.826Z,19.30
2018-03-02T04:04:51.071Z,22.70
2018-03-02T04:07:18.872Z,20.30
2018-03-02T04:09:47.116Z,19.30
2018-03-02T04:12:14.622Z,21.73
2018-03-02T04:14:42.105Z,22.87
2018-03-02T04:17:09.569Z,21.03
2018-03-02T04:19:37.053Z,20.93
2018-03-02T04:22:04.506Z,20.80
2018-03-02T04:24:31.980Z,21.97
2018-03-02T04:27:00.205Z,23.40
2018-03-02T04:29:27.705Z,19.20
2018-03-02T04:31:55.183Z,22.80
2018-03-02T04:34:23.440Z,23.23
2018-03-02T04:36:51.012Z,21.27
2018-03-02T04:39:19.244Z,19.63
2018-03-02T04:41:46.700Z,21.63
2018-03-02T04:44:14.201Z,21.00
2018-03-02T04:46:42.427Z,20.63
2018-03-02T04:49:09.945Z,23.20
2018-03-02T04:51:38.181Z,19.93
2018-03-02T04:54:05.656Z,21.17
2018-03-02T04:56:33.164Z,19.47
2018-03-02T04:59:00.654Z,18.37
2018-03-02T05:01:28.129Z,21.80
2018-03-02T05:03:56.357Z,22.67
2018-03-02T05:06:23.812Z,24.73
2018-03-02T05:08:51.299Z,21.53
2018-03-02T05:11:18.760Z,23.27
2018-03-02T05:13:46.225Z,21.80
2018-03-02T05:16:13.701Z,21.10
2018-03-02T05:18:41.158Z,22.70
2018-03-02T05:21:09.437Z,21.73
2018-03-02T05:23:37.709Z,22.20
2018-03-02T05:26:05.952Z,21.60
2018-03-02T05:28:33.418Z,23.67
2018-03-02T05:31:00.884Z,21.67
2018-03-02T05:33:29.108Z,22.60
2018-03-02T05:35:56.632Z,21.77
2018-03-02T05:38:24.891Z,19.93
2018-03-02T05:40:52.373Z,23.90
2018-03-02T05:43:19.896Z,21.97
2018-03-02T05:45:47.372Z,22.13
2018-03-02T05:48:15.606Z,21.33
2018-03-02T05:50:43.098Z,21.20
2018-03-02T05:53:10.576Z,22.37
2018-03-02T05:55:38.059Z,24.47
2018-03-02T05:58:05.540Z,26.23
2018-03-02T06:00:33.029Z,25.73
2018-03-02T06:03:01.257Z,21.33
2018-03-02T06:05:28.782Z,19.33
2018-03-02T06:07:56.397Z,23.43
2018-03-02T06:10:23.859Z,22.17
2018-03-02T06:12:51.346Z,24.00
2018-03-02T06:15:19.594Z,25.40
2018-03-02T06:17:47.090Z,24.63
2018-03-02T06:20:14.600Z,24.80
2018-03-02T06:22:42.126Z,21.07
2018-03-02T06:25:10.342Z,24.80
2018-03-02T06:27:37.844Z,24.07
2018-03-02T06:30:05.302Z,26.83
2018-03-02T06:32:32.781Z,22.93
2018-03-02T06:35:00.849Z,26.37
2018-03-02T06:37:28.319Z,24.47
2018-03-02T06:39:55.808Z,25.23
2018-03-02T06:42:24.065Z,26.73
2018-03-02T06:44:51.552Z,23.27
2018-03-02T06:47:19.836Z,21.37
2018-03-02T06:49:48.104Z,22.30
2018-03-02T06:52:17.159Z,23.87
2018-03-02T06:54:44.649Z,22.43
2018-03-02T06:57:12.877Z,22.33
2018-03-02T06:59:40.365Z,20.07
2018-03-02T07:02:07.885Z,20.03
2018-03-02T07:04:35.361Z,24.10
2018-03-02T07:07:02.844Z,19.63
2018-03-02T07:09:31.072Z,22.70
2018-03-02T07:11:58.529Z,22.33
2018-03-02T07:14:26.028Z,20.83
2018-03-02T07:16:53.510Z,25.60
2018-03-02T07:19:21.764Z,24.33
2018-03-02T07:21:49.233Z,21.23
2018-03-02T07:24:17.506Z,24.17
2018-03-02T07:26:45.738Z,23.03
2018-03-02T07:29:13.216Z,25.70
2018-03-02T07:31:40.713Z,24.87
2018-03-02T07:34:08.179Z,21.13
2018-03-02T07:36:35.640Z,26.90
2018-03-02T07:39:03.116Z,22.40
2018-03-02T07:41:30.568Z,21.57
2018-03-02T07:43:58.047Z,19.93
2018-03-02T07:46:25.554Z,24.17
2018-03-02T07:48:53.040Z,21.53
2018-03-02T07:51:20.520Z,22.07
2018-03-02T07:53:48.004Z,26.23
2018-03-02T07:56:16.259Z,27.37
2018-03-02T07:58:43.725Z,26.10
2018-03-02T08:01:11.221Z,25.57
2018-03-02T08:03:39.153Z,22.67
2018-03-02T08:06:06.609Z,21.50
2018-03-02T08:08:34.080Z,20.70
2018-03-02T08:11:02.331Z,26.43
2018-03-02T08:13:29.820Z,23.83
2018-03-02T08:15:58.064Z,24.07
2018-03-02T08:18:25.516Z,23.70
2018-03-02T08:20:52.994Z,24.70
2018-03-02T08:23:21.253Z,23.93
2018-03-02T08:25:48.737Z,25.27
2018-03-02T08:28:16.996Z,26.23
2018-03-02T08:30:44.450Z,23.70
2018-03-02T08:33:11.917Z,19.87
2018-03-02T08:35:39.385Z,23.13
2018-03-02T08:38:06.865Z,24.57
2018-03-02T08:40:34.460Z,26.37
2018-03-02T08:43:02.698Z,25.50
2018-03-02T08:45:30.190Z,28.30
2018-03-02T08:47:57.698Z,31.53
2018-03-02T08:50:25.155Z,27.73
2018-03-02T08:52:52.637Z,25.93
2018-03-02T08:55:20.122Z,24.83
2018-03-02T08:57:47.611Z,24.57
2018-03-02T09:00:15.861Z,26.67
2018-03-02T09:02:43.345Z,27.80
2018-03-02T09:05:11.598Z,27.13
2018-03-02T09:07:39.123Z,29.43
2018-03-02T09:10:06.696Z,30.73
2018-03-02T09:12:34.116Z,26.93
2018-03-02T09:15:01.693Z,20.43
2018-03-02T09:17:29.212Z,25.47
2018-03-02T09:19:57.445Z,25.87
2018-03-02T09:22:24.940Z,23.17
2018-03-02T09:24:53.185Z,26.37
2018-03-02T09:27:20.647Z,26.67
2018-03-02T09:29:48.140Z,27.20
2018-03-02T09:32:15.602Z,24.40
2018-03-02T09:34:43.084Z,21.73
2018-03-02T09:37:10.577Z,26.03
2018-03-02T09:39:38.072Z,25.07
2018-03-02T09:42:05.552Z,28.10
2018-03-02T09:44:33.054Z,24.80
2018-03-02T09:47:00.508Z,26.07
2018-03-02T09:49:28.018Z,22.13
2018-03-02T09:51:55.492Z,23.00
2018-03-02T09:54:23.009Z,25.80
2018-03-02T09:56:51.260Z,26.87
2018-03-02T09:59:18.795Z,28.80
2018-03-02T10:01:46.225Z,21.83
2018-03-02T10:04:13.700Z,27.70
2018-03-02T10:06:41.180Z,22.67
2018-03-02T10:09:08.648Z,25.87
2018-03-02T10:11:36.161Z,26.03
2018-03-02T10:14:05.283Z,22.90
2018-03-02T10:16:32.757Z,23.17
2018-03-02T10:19:00.224Z,22.10
2018-03-02T10:21:28.509Z,27.63
2018-03-02T10:23:56.732Z,26.27
2018-03-02T10:26:24.193Z,23.53
2018-03-02T10:28:51.782Z,26.27
2018-03-02T10:31:19.240Z,25.77
2018-03-02T10:33:47.460Z,27.07
2018-03-02T10:36:14.969Z,25.17
2018-03-02T10:38:42.452Z,25.97
2018-03-02T10:41:09.908Z,28.30
2018-03-02T10:43:37.394Z,25.73
2018-03-02T10:46:04.872Z,27.53
2018-03-02T10:48:32.338Z,26.23
2018-03-02T10:50:59.824Z,25.03
2018-03-02T10:53:28.064Z,25.97
2018-03-02T10:55:55.548Z,25.87
2018-03-02T10:58:23.800Z,26.57
2018-03-02T11:00:52.071Z,25.70
2018-03-02T11:03:23.410Z,26.57
2018-03-02T11:05:50.880Z,26.80
2018-03-02T11:08:18.353Z,27.53
2018-03-02T11:10:45.828Z,26.77
2018-03-02T11:13:14.052Z,28.43
2018-03-02T11:15:41.561Z,27.27
2018-03-02T11:18:09.772Z,26.50
2018-03-02T11:20:37.229Z,27.57
2018-03-02T11:23:04.742Z,27.80
2018-03-02T11:25:32.972Z,28.80
2018-03-02T11:28:00.424Z,27.33
2018-03-02T11:30:27.935Z,30.17
2018-03-02T11:32:56.180Z,26.87
2018-03-02T11:35:23.658Z,26.27
2018-03-02T11:37:51.881Z,26.80
2018-03-02T11:40:19.345Z,29.03
2018-03-02T11:42:46.825Z,26.43
2018-03-02T11:45:14.309Z,27.87
2018-03-02T11:47:42.544Z,27.83
2018-03-02T11:50:11.989Z,25.30
2018-03-02T11:52:40.249Z,27.43
2018-03-02T11:55:07.727Z,28.30
2018-03-02T11:57:35.180Z,27.17
2018-03-02T12:00:03.440Z,23.77
2018-03-02T12:02:30.889Z,25.73
2018-03-02T12:04:58.361Z,27.90
2018-03-02T12:07:26.631Z,27.53
2018-03-02T12:09:54.098Z,25.87
2018-03-02T12:12:22.798Z,26.03
2018-03-02T12:14:50.268Z,25.60
2018-03-02T12:17:17.743Z,26.77
2018-03-02T12:19:45.541Z,24.70
2018-03-02T12:22:13.021Z,28.00
2018-03-02T12:24:41.249Z,28.60
2018-03-02T12:27:08.812Z,26.43
2018-03-02T12:29:36.280Z,28.47
2018-03-02T12:32:03.754Z,26.80
2018-03-02T12:34:31.212Z,28.17
2018-03-02T12:36:59.444Z,26.57
2018-03-02T12:39:26.918Z,27.60
2018-03-02T12:41:54.380Z,26.37
2018-03-02T12:44:21.888Z,28.90
2018-03-02T12:46:49.345Z,28.07
2018-03-02T12:49:16.861Z,27.13
2018-03-02T12:51:44.335Z,25.40
2018-03-02T12:54:12.581Z,29.37
2018-03-02T12:56:43.062Z,29.53
2018-03-02T12:59:10.532Z,28.63
2018-03-02T13:01:38.000Z,28.00
2018-03-02T13:04:05.509Z,29.17
2018-03-02T13:06:33.753Z,27.87
2018-03-02T13:09:01.223Z,28.13
2018-03-02T13:11:28.712Z,29.37
2018-03-02T13:13:56.181Z,27.40
2018-03-02T13:16:23.636Z,26.93
2018-03-02T13:18:51.165Z,28.27
2018-03-02T13:21:18.601Z,29.30
2018-03-02T13:23:46.045Z,29.00
2018-03-02T13:26:26.239Z,27.53
2018-03-02T13:28:53.715Z,26.87
2018-03-02T13:31:21.321Z,30.93
2018-03-02T13:34:00.716Z,31.70
2018-03-02T13:36:28.186Z,29.30
2018-03-02T13:38:55.741Z,31.60
2018-03-02T13:41:35.061Z,29.47
2018-03-02T13:44:02.653Z,27.97
2018-03-02T13:46:30.145Z,25.07
2018-03-02T13:49:09.511Z,30.73
2018-03-02T13:51:37.271Z,27.80
2018-03-02T13:54:05.537Z,29.23
2018-03-02T13:59:40.325Z,28.17
2018-03-02T14:02:07.833Z,27.97
2018-03-02T14:04:47.238Z,28.30
2018-03-02T14:07:14.723Z,27.47
2018-03-02T14:09:42.173Z,29.67
2018-03-02T14:12:13.272Z,30.63
2018-03-02T14:14:40.753Z,26.53
2018-03-02T14:17:08.240Z,30.80
2018-03-02T14:19:35.700Z,26.73
2018-03-02T14:22:03.160Z,32.33
2018-03-02T14:24:31.396Z,26.83
2018-03-02T14:26:58.876Z,28.17
2018-03-02T14:29:26.368Z,29.43
2018-03-02T14:31:53.811Z,32.33
2018-03-02T14:34:22.044Z,27.20
2018-03-02T14:36:49.525Z,31.03
2018-03-02T14:39:16.966Z,29.23
2018-03-02T14:41:44.429Z,29.87
2018-03-02T14:44:11.914Z,28.53
2018-03-02T14:46:40.167Z,30.43
2018-03-02T14:49:07.617Z,29.23
2018-03-02T14:51:35.124Z,30.17
2018-03-02T14:54:03.343Z,28.80
2018-03-02T14:56:30.836Z,29.53
2018-03-02T14:58:59.042Z,29.70
2018-03-02T15:01:26.570Z,28.67
2018-03-02T15:03:54.796Z,29.00
2018-03-02T15:06:22.265Z,29.43
2018-03-02T15:08:49.726Z,26.83
2018-03-02T15:11:17.210Z,27.53
2018-03-02T15:13:45.403Z,28.10
2018-03-02T15:16:12.884Z,31.00
2018-03-02T15:18:40.369Z,28.50
2018-03-02T15:21:07.821Z,28.70
2018-03-02T15:23:35.297Z,27.97
2018-03-02T15:26:02.752Z,31.77
2018-03-02T15:28:30.965Z,28.20
2018-03-02T15:30:58.430Z,28.80
2018-03-02T15:33:25.884Z,27.37
2018-03-02T15:35:53.338Z,30.33
2018-03-02T15:38:20.804Z,30.63
2018-03-02T15:40:48.272Z,30.47
2018-03-02T15:43:15.717Z,30.13
2018-03-02T15:45:43.207Z,30.60
2018-03-02T15:48:10.705Z,30.93
2018-03-02T15:50:38.914Z,28.53
2018-03-02T15:53:06.384Z,31.33
2018-03-02T15:55:33.885Z,29.73
2018-03-02T15:58:02.104Z,31.20
2018-03-02T16:00:29.589Z,28.20
2018-03-02T16:02:57.043Z,29.10
2018-03-02T16:05:24.642Z,28.77
2018-03-02T16:07:52.140Z,32.10
2018-03-02T16:10:19.597Z,30.40
2018-03-02T16:12:47.058Z,26.57
2018-03-02T16:15:14.743Z,29.57
2018-03-02T16:17:43.611Z,27.87
2018-03-02T16:20:11.295Z,30.37
2018-03-02T16:22:39.651Z,31.43
2018-03-02T16:25:07.133Z,32.03
2018-03-02T16:27:34.585Z,31.83
2018-03-02T16:30:02.079Z,32.07
2018-03-02T16:32:29.548Z,31.67
2018-03-02T16:34:56.999Z,33.30
2018-03-02T16:37:24.437Z,34.17
2018-03-02T16:39:52.679Z,32.27
2018-03-02T16:42:20.169Z,31.83
2018-03-02T16:44:48.417Z,34.70
2018-03-02T16:47:15.906Z,34.10
2018-03-02T16:49:44.113Z,34.40
2018-03-02T16:52:11.597Z,33.20
2018-03-02T16:54:39.052Z,33.80
2018-03-02T16:57:06.522Z,32.73
2018-03-02T16:59:34.004Z,37.87
2018-03-02T17:02:02.212Z,33.43
2018-03-02T17:04:29.740Z,32.60
2018-03-02T17:06:57.225Z,32.87
2018-03-02T17:09:25.197Z,30.67
2018-03-02T17:11:53.660Z,33.00
2018-03-02T17:14:21.143Z,30.40
2018-03-02T17:16:48.592Z,30.77
2018-03-02T17:19:16.070Z,30.73
2018-03-02T17:21:43.529Z,29.33
2018-03-02T17:24:10.973Z,31.97
2018-03-02T17:26:38.428Z,29.83
2018-03-02T17:29:05.892Z,29.03
2018-03-02T17:31:35.277Z,30.93
2018-03-02T17:34:02.732Z,30.67
2018-03-02T17:36:30.188Z,31.50
2018-03-02T17:38:57.645Z,32.20
2018-03-02T17:41:25.110Z,27.53
2018-03-02T17:43:53.369Z,32.70
2018-03-02T17:46:21.057Z,32.10
2018-03-02T17:48:48.536Z,31.27
2018-03-02T17:51:16.794Z,32.50
2018-03-02T17:53:44.260Z,30.87
2018-03-02T17:56:11.732Z,30.23
2018-03-02T17:58:39.955Z,29.33
2018-03-02T18:01:07.450Z,34.83
2018-03-02T18:03:34.982Z,33.67
2018-03-02T18:06:02.484Z,32.80
2018-03-02T18:08:30.696Z,35.33
2018-03-02T18:10:58.142Z,35.87
2018-03-02T18:13:25.626Z,34.40
2018-03-02T18:15:53.104Z,35.10
2018-03-02T18:18:20.566Z,38.33
2018-03-02T18:20:48.017Z,40.70
2018-03-02T18:23:15.489Z,31.67
2018-03-02T18:25:42.933Z,36.77
2018-03-02T18:28:10.394Z,36.97
2018-03-02T18:30:37.838Z,37.57
2018-03-02T18:33:05.335Z,33.80
2018-03-02T18:35:32.813Z,36.10
2018-03-02T18:38:00.306Z,31.77
2018-03-02T18:40:27.768Z,36.83
2018-03-02T18:42:55.225Z,36.33
2018-03-02T18:45:22.681Z,33.50
2018-03-02T18:47:50.156Z,37.37
2018-03-02T18:50:18.829Z,34.53
2018-03-02T18:52:46.308Z,33.73
2018-03-02T18:55:14.512Z,38.17
2018-03-02T18:57:42.010Z,36.67
2018-03-02T19:00:09.494Z,35.43
2018-03-02T19:02:38.374Z,37.23
2018-03-02T19:05:05.826Z,31.83
2018-03-02T19:07:33.305Z,31.87
2018-03-02T19:10:02.141Z,40.50
2018-03-02T19:12:29.613Z,35.60
2018-03-02T19:14:57.104Z,38.63
2018-03-02T19:17:25.379Z,40.50
2018-03-02T19:19:53.671Z,40.00
2018-03-02T19:22:21.486Z,38.27
2018-03-02T19:24:48.973Z,40.27
2018-03-02T19:27:17.296Z,37.57
2018-03-02T19:29:44.880Z,35.60
2018-03-02T19:32:12.468Z,40.53
2018-03-02T19:34:40.822Z,43.27
2018-03-02T19:37:08.447Z,42.20
2018-03-02T19:39:36.021Z,43.80
2018-03-02T19:42:03.687Z,42.70
2018-03-02T19:44:31.321Z,36.03
2018-03-02T19:46:58.973Z,36.10
2018-03-02T19:49:27.495Z,43.37
2018-03-02T19:51:55.943Z,43.83
2018-03-02T19:54:23.631Z,41.70
2018-03-02T19:56:51.266Z,41.93
2018-03-02T19:59:18.908Z,39.73
2018-03-02T20:01:46.468Z,40.40
2018-03-02T20:04:14.013Z,48.53
2018-03-02T20:06:42.337Z,49.20
2018-03-02T20:09:10.034Z,44.70
2018-03-02T20:11:37.747Z,43.70
2018-03-02T20:14:05.468Z,50.30
2018-03-02T20:16:33.831Z,52.70
2018-03-02T20:19:01.459Z,52.23
2018-03-02T20:21:29.002Z,50.30
2018-03-02T20:23:57.520Z,49.97
2018-03-02T20:26:25.898Z,49.00
2018-03-02T20:28:53.434Z,48.10
2018-03-02T20:31:20.940Z,48.47
2018-03-02T20:33:48.471Z,51.47
2018-03-02T20:36:15.971Z,47.77
2018-03-02T20:38:43.459Z,47.93
2018-03-02T20:41:10.943Z,54.10
2018-03-02T20:43:38.417Z,51.23
2018-03-02T20:46:05.937Z,51.63
2018-03-02T20:48:33.441Z,49.13
2018-03-02T20:51:00.955Z,44.73
2018-03-02T20:53:28.512Z,51.67
2018-03-02T20:55:55.999Z,39.97
2018-03-02T20:58:23.566Z,45.33
2018-03-02T21:00:51.083Z,55.23
2018-03-02T21:03:18.570Z,51.87
2018-03-02T21:05:46.101Z,53.50
2018-03-02T21:08:13.598Z,44.40
2018-03-02T21:10:41.942Z,55.87
2018-03-02T21:13:09.437Z,48.07
2018-03-02T21:15:36.955Z,52.37
2018-03-02T21:18:04.971Z,55.27
2018-03-02T21:20:32.478Z,55.43
2018-03-02T21:23:00.044Z,52.67
2018-03-02T21:25:28.284Z,59.27
2018-03-02T21:27:56.533Z,54.67
2018-03-02T21:30:24.051Z,57.57
2018-03-02T21:32:51.523Z,56.70
2018-03-02T21:35:19.014Z,59.63
2018-03-02T21:37:47.282Z,59.73
2018-03-02T21:40:14.798Z,60.13
2018-03-02T21:42:42.291Z,61.40
2018-03-02T21:45:09.825Z,55.27
2018-03-02T21:47:37.334Z,66.90
2018-03-02T21:50:06.393Z,62.10
2018-03-02T21:52:33.886Z,57.40
2018-03-02T21:55:02.167Z,57.97
2018-03-02T21:57:30.389Z,52.23
2018-03-02T21:59:57.851Z,51.13
2018-03-02T22:02:25.371Z,65.50
2018-03-02T22:04:52.840Z,67.70
2018-03-02T22:07:20.311Z,58.80
2018-03-02T22:09:47.766Z,59.77
2018-03-02T22:12:15.222Z,56.27
2018-03-02T22:14:42.682Z,53.20
2018-03-02T22:17:10.348Z,58.77
2018-03-02T22:19:37.840Z,57.27
2018-03-02T22:22:06.058Z,58.33
2018-03-02T22:24:33.530Z,52.53
2018-03-02T22:27:01.026Z,58.40
2018-03-02T22:29:28.495Z,60.47
2018-03-02T22:31:56.745Z,59.20
2018-03-02T22:34:24.193Z,57.47
2018-03-02T22:36:51.672Z,57.57
2018-03-02T22:39:19.904Z,56.93
2018-03-02T22:41:47.363Z,53.87
2018-03-02T22:44:14.825Z,61.37
2018-03-02T22:46:42.276Z,61.70
2018-03-02T22:49:09.733Z,52.43
2018-03-02T22:51:37.218Z,59.00
2018-03-02T22:54:05.640Z,54.60
2018-03-02T22:56:33.970Z,56.47
2018-03-02T22:59:01.440Z,55.67
2018-03-02T23:01:29.757Z,59.77
2018-03-02T23:03:57.219Z,58.33
2018-03-02T23:06:24.693Z,54.00
2018-03-02T23:08:52.165Z,59.90
2018-03-02T23:11:19.638Z,60.33
2018-03-02T23:13:47.076Z,61.47
2018-03-02T23:16:14.534Z,57.60
2018-03-02T23:18:41.989Z,51.70
2018-03-02T23:21:10.337Z,60.70
2018-03-02T23:23:37.781Z,59.70
2018-03-02T23:26:05.241Z,59.73
2018-03-02T23:28:32.729Z,59.80
2018-03-02T23:31:00.182Z,57.07
2018-03-02T23:33:27.634Z,57.93
2018-03-02T23:35:55.123Z,65.00
2018-03-02T23:38:22.597Z,57.67
2018-03-02T23:40:50.808Z,60.43
2018-03-02T23:43:18.262Z,66.47
2018-03-02T23:45:45.728Z,62.80
2018-03-02T23:48:13.182Z,64.03
2018-03-02T23:50:40.667Z,60.90
2018-03-02T23:53:08.127Z,57.77
2018-03-02T23:55:35.599Z,63.03
2018-03-02T23:58:03.046Z,59.73
